createdAt,value
2017-12-29T00:02:06.954Z,2.73
2017-12-29T00:04:34.428Z,2.33
2017-12-29T00:07:01.908Z,2.70
2017-12-29T00:09:29.369Z,2.20
2017-12-29T00:11:57.623Z,2.73
2017-12-29T00:14:25.088Z,2.40
2017-12-29T00:16:52.560Z,2.27
2017-12-29T00:19:19.987Z,2.10
2017-12-29T00:21:47.483Z,2.10
2017-12-29T00:24:14.911Z,2.00
2017-12-29T00:26:42.411Z,2.30
2017-12-29T00:29:10.417Z,2.13
2017-12-29T00:31:37.894Z,2.40
2017-12-29T00:34:05.333Z,1.60
2017-12-29T00:36:32.773Z,2.30
2017-12-29T00:39:01.034Z,2.40
2017-12-29T00:41:28.461Z,2.40
2017-12-29T00:43:56.710Z,2.33
2017-12-29T00:46:24.146Z,1.80
2017-12-29T00:48:52.407Z,2.50
2017-12-29T00:51:19.878Z,2.63
2017-12-29T00:53:47.311Z,2.20
2017-12-29T00:56:15.515Z,1.97
2017-12-29T00:58:42.968Z,2.03
2017-12-29T01:01:11.127Z,1.90
2017-12-29T01:03:38.932Z,2.60
2017-12-29T01:06:06.374Z,2.40
2017-12-29T01:08:33.823Z,2.40
2017-12-29T01:11:02.030Z,2.17
2017-12-29T01:13:30.241Z,2.85
2017-12-29T01:15:57.682Z,2.60
2017-12-29T01:18:25.132Z,3.53
2017-12-29T01:20:52.577Z,3.90
2017-12-29T01:23:20.018Z,4.30
2017-12-29T01:25:47.482Z,3.90
2017-12-29T01:28:14.918Z,3.40
2017-12-29T01:30:42.360Z,3.57
2017-12-29T01:33:09.807Z,3.45
2017-12-29T01:35:37.266Z,2.60
2017-12-29T01:38:04.698Z,2.60
2017-12-29T01:40:32.156Z,2.60
2017-12-29T01:42:59.594Z,3.40
2017-12-29T01:45:30.585Z,4.50
2017-12-29T01:47:58.042Z,3.67
2017-12-29T01:50:26.262Z,3.00
2017-12-29T01:52:53.698Z,2.42
2017-12-29T01:55:21.160Z,3.00
2017-12-29T01:57:48.605Z,2.70
2017-12-29T02:00:16.062Z,2.50
2017-12-29T02:02:44.271Z,2.80
2017-12-29T02:05:11.723Z,2.80
2017-12-29T02:07:39.933Z,3.08
2017-12-29T02:10:08.132Z,2.53
2017-12-29T02:12:36.357Z,2.35
2017-12-29T02:15:03.791Z,2.50
2017-12-29T02:17:31.230Z,2.43
2017-12-29T02:19:58.667Z,2.55
2017-12-29T02:22:26.879Z,2.15
2017-12-29T02:24:54.315Z,2.40
2017-12-29T02:27:21.793Z,2.65
2017-12-29T02:29:49.220Z,2.10
2017-12-29T02:32:17.439Z,2.00
2017-12-29T02:34:44.876Z,2.28
2017-12-29T02:37:12.322Z,1.60
2017-12-29T02:39:40.280Z,1.70
2017-12-29T02:42:07.710Z,1.63
2017-12-29T02:44:35.139Z,1.70
2017-12-29T02:47:02.588Z,1.83
2017-12-29T02:49:30.025Z,1.77
2017-12-29T02:51:57.466Z,1.70
2017-12-29T02:54:25.683Z,1.10
2017-12-29T02:56:53.126Z,2.10
2017-12-29T02:59:20.576Z,1.83
2017-12-29T03:01:48.016Z,1.63
2017-12-29T03:04:16.232Z,1.60
2017-12-29T03:06:43.671Z,1.47
2017-12-29T03:09:11.744Z,1.33
2017-12-29T03:11:39.543Z,1.50
2017-12-29T03:14:06.963Z,1.80
2017-12-29T03:16:34.400Z,1.80
2017-12-29T03:19:01.852Z,1.70
2017-12-29T03:21:29.293Z,1.30
2017-12-29T03:23:57.519Z,1.70
2017-12-29T03:26:24.956Z,1.30
2017-12-29T03:28:52.404Z,1.60
2017-12-29T03:31:19.844Z,1.97
2017-12-29T03:33:47.302Z,1.70
2017-12-29T03:36:15.505Z,1.47
2017-12-29T03:38:43.709Z,1.73
2017-12-29T03:41:11.915Z,2.00
2017-12-29T03:43:39.361Z,1.43
2017-12-29T03:46:06.804Z,1.90
2017-12-29T03:48:34.250Z,1.63
2017-12-29T03:51:02.460Z,1.60
2017-12-29T03:53:29.904Z,1.83
2017-12-29T03:55:57.352Z,2.03
2017-12-29T03:58:24.799Z,1.30
2017-12-29T04:00:53.007Z,1.40
2017-12-29T04:03:20.445Z,1.70
2017-12-29T04:05:47.892Z,1.67
2017-12-29T04:08:15.328Z,1.30
2017-12-29T04:10:42.777Z,1.40
2017-12-29T04:13:10.219Z,1.30
2017-12-29T04:15:37.680Z,1.33
2017-12-29T04:18:05.888Z,1.53
2017-12-29T04:20:33.336Z,1.90
2017-12-29T04:23:00.773Z,1.93
2017-12-29T04:25:28.212Z,1.20
2017-12-29T04:27:56.418Z,1.23
2017-12-29T04:30:23.875Z,1.10
2017-12-29T04:32:51.317Z,1.17
2017-12-29T04:35:18.748Z,1.73
2017-12-29T04:37:46.960Z,1.60
2017-12-29T04:40:14.400Z,1.60
2017-12-29T04:42:42.303Z,1.80
2017-12-29T04:45:09.742Z,1.43
2017-12-29T04:47:37.193Z,1.50
2017-12-29T04:50:04.636Z,1.63
2017-12-29T04:52:32.087Z,1.50
2017-12-29T04:54:59.532Z,1.50
2017-12-29T04:57:27.753Z,1.30
2017-12-29T04:59:55.203Z,1.60
2017-12-29T05:02:23.420Z,1.67
2017-12-29T05:04:50.863Z,1.37
2017-12-29T05:07:18.307Z,1.37
2017-12-29T05:09:46.031Z,1.70
2017-12-29T05:12:13.466Z,1.23
2017-12-29T05:14:41.388Z,1.47
2017-12-29T05:17:08.827Z,1.30
2017-12-29T05:19:36.277Z,1.23
2017-12-29T05:22:03.715Z,1.40
2017-12-29T05:24:31.169Z,1.60
2017-12-29T05:26:58.601Z,1.30
2017-12-29T05:29:26.048Z,1.83
2017-12-29T05:31:53.483Z,1.60
2017-12-29T05:34:21.695Z,1.40
2017-12-29T05:36:49.907Z,1.37
2017-12-29T05:39:17.349Z,1.47
2017-12-29T05:41:44.796Z,2.20
2017-12-29T05:44:12.764Z,2.67
2017-12-29T05:46:40.544Z,2.20
2017-12-29T05:49:08.744Z,1.67
2017-12-29T05:51:36.194Z,1.53
2017-12-29T05:54:03.643Z,1.93
2017-12-29T05:56:31.084Z,2.60
2017-12-29T05:58:58.531Z,2.63
2017-12-29T06:01:25.990Z,2.40
2017-12-29T06:03:53.425Z,1.90
2017-12-29T06:06:20.880Z,2.33
2017-12-29T06:08:48.319Z,1.77
2017-12-29T06:11:15.769Z,1.93
2017-12-29T06:13:43.209Z,1.70
2017-12-29T06:16:11.280Z,1.73
2017-12-29T06:18:38.725Z,1.60
2017-12-29T06:21:06.163Z,1.60
2017-12-29T06:23:33.599Z,1.73
2017-12-29T06:26:01.054Z,1.60
2017-12-29T06:28:29.261Z,2.00
2017-12-29T06:30:56.708Z,1.80
2017-12-29T06:33:24.147Z,1.80
2017-12-29T06:35:51.599Z,2.27
2017-12-29T06:38:19.059Z,2.03
2017-12-29T06:40:46.504Z,1.93
2017-12-29T06:43:13.944Z,2.00
2017-12-29T06:45:41.899Z,2.07
2017-12-29T06:48:09.327Z,2.77
2017-12-29T06:50:36.775Z,1.73
2017-12-29T06:53:04.979Z,2.47
2017-12-29T06:55:33.185Z,2.50
2017-12-29T06:58:01.392Z,2.60
2017-12-29T07:00:28.823Z,2.03
2017-12-29T07:02:56.281Z,2.80
2017-12-29T07:05:23.725Z,2.33
2017-12-29T07:07:51.946Z,2.87
2017-12-29T07:10:19.390Z,2.90
2017-12-29T07:12:46.835Z,2.40
2017-12-29T07:15:14.289Z,2.30
2017-12-29T07:17:42.174Z,3.60
2017-12-29T07:20:09.670Z,3.63
2017-12-29T07:22:37.125Z,4.50
2017-12-29T07:25:04.573Z,5.07
2017-12-29T07:27:33.533Z,4.30
2017-12-29T07:30:02.585Z,3.60
2017-12-29T07:32:30.031Z,2.53
2017-12-29T07:34:57.474Z,2.17
2017-12-29T07:37:24.918Z,2.27
2017-12-29T07:39:52.364Z,2.80
2017-12-29T07:42:19.803Z,2.70
2017-12-29T07:44:47.254Z,2.60
2017-12-29T07:47:14.713Z,2.50
2017-12-29T07:49:42.703Z,2.10
2017-12-29T07:52:10.158Z,2.30
2017-12-29T07:54:37.617Z,2.15
2017-12-29T07:57:05.057Z,2.20
2017-12-29T07:59:32.509Z,2.30
2017-12-29T08:02:00.779Z,1.75
2017-12-29T08:04:28.181Z,2.08
2017-12-29T08:06:56.379Z,2.15
2017-12-29T08:09:24.608Z,3.50
2017-12-29T08:11:52.040Z,4.60
2017-12-29T08:14:19.498Z,5.62
2017-12-29T08:16:46.932Z,5.43
2017-12-29T08:19:15.148Z,5.40
2017-12-29T08:21:43.243Z,5.17
2017-12-29T08:24:10.695Z,4.20
2017-12-29T08:26:38.124Z,5.03
2017-12-29T08:29:05.575Z,4.13
2017-12-29T08:31:33.772Z,4.23
2017-12-29T08:34:01.988Z,2.40
2017-12-29T08:36:29.419Z,3.53
2017-12-29T08:38:56.872Z,3.70
2017-12-29T08:41:24.315Z,3.53
2017-12-29T08:43:52.525Z,3.73
2017-12-29T08:46:19.971Z,4.15
2017-12-29T08:48:47.418Z,3.80
2017-12-29T08:51:14.861Z,3.90
2017-12-29T08:53:42.319Z,3.40
2017-12-29T08:56:10.523Z,3.40
2017-12-29T08:58:38.723Z,3.53
2017-12-29T09:01:06.950Z,2.97
2017-12-29T09:03:34.406Z,3.92
2017-12-29T09:06:02.625Z,3.95
2017-12-29T09:08:30.060Z,3.80
2017-12-29T09:10:57.517Z,4.10
2017-12-29T09:13:24.958Z,3.35
2017-12-29T09:15:52.405Z,4.00
2017-12-29T09:18:19.842Z,3.67
2017-12-29T09:20:47.289Z,3.40
2017-12-29T09:23:15.496Z,3.70
2017-12-29T09:25:43.530Z,3.50
2017-12-29T09:33:04.970Z,2.90
2017-12-29T09:35:32.418Z,4.30
2017-12-29T09:37:59.852Z,4.20
2017-12-29T09:40:28.070Z,6.85
2017-12-29T09:42:56.289Z,5.93
2017-12-29T09:45:23.747Z,5.30
2017-12-29T09:47:51.950Z,5.43
2017-12-29T09:50:19.395Z,7.40
2017-12-29T09:52:46.843Z,4.70
2017-12-29T09:55:14.286Z,3.87
2017-12-29T09:57:43.035Z,4.62
2017-12-29T10:00:10.474Z,3.80
2017-12-29T10:02:38.686Z,2.93
2017-12-29T10:05:06.885Z,3.70
2017-12-29T10:07:35.104Z,3.27
2017-12-29T10:10:02.547Z,3.53
2017-12-29T10:12:29.982Z,3.90
2017-12-29T10:14:57.424Z,3.07
2017-12-29T10:17:25.628Z,3.00
2017-12-29T10:19:53.829Z,3.57
2017-12-29T10:22:21.289Z,3.80
2017-12-29T10:24:48.721Z,3.50
2017-12-29T10:27:16.167Z,3.40
2017-12-29T10:29:44.379Z,3.10
2017-12-29T10:32:12.126Z,3.25
2017-12-29T10:34:39.573Z,3.30
2017-12-29T10:37:07.016Z,3.35
2017-12-29T10:39:34.456Z,3.22
2017-12-29T10:42:01.897Z,3.28
2017-12-29T10:44:29.331Z,2.80
2017-12-29T10:46:56.766Z,2.40
2017-12-29T10:49:24.199Z,2.70
2017-12-29T10:51:52.420Z,2.80
2017-12-29T10:54:19.850Z,2.57
2017-12-29T10:56:47.287Z,2.80
2017-12-29T10:59:14.720Z,2.90
2017-12-29T11:01:42.151Z,3.03
2017-12-29T11:04:09.595Z,2.50
2017-12-29T11:06:37.029Z,3.00
2017-12-29T11:09:04.476Z,2.70
2017-12-29T11:11:32.670Z,2.60
2017-12-29T11:14:00.882Z,2.50
2017-12-29T11:16:28.321Z,2.80
2017-12-29T11:18:55.855Z,2.63
2017-12-29T11:21:23.289Z,1.87
2017-12-29T11:23:50.739Z,2.90
2017-12-29T11:26:18.168Z,2.30
2017-12-29T11:28:46.372Z,2.63
2017-12-29T11:31:14.578Z,2.57
2017-12-29T11:33:42.948Z,3.20
2017-12-29T11:36:10.376Z,2.80
2017-12-29T11:38:37.809Z,2.50
2017-12-29T11:41:05.245Z,2.13
2017-12-29T11:43:32.692Z,2.33
2017-12-29T11:46:00.888Z,2.13
2017-12-29T11:48:29.097Z,2.60
2017-12-29T11:50:57.308Z,2.77
2017-12-29T11:53:24.743Z,2.30
2017-12-29T11:55:52.189Z,2.10
2017-12-29T11:58:19.627Z,1.87
2017-12-29T12:00:47.823Z,2.10
2017-12-29T12:03:16.022Z,2.00
2017-12-29T12:05:44.227Z,1.77
2017-12-29T12:08:13.439Z,1.87
2017-12-29T12:10:42.257Z,1.97
2017-12-29T12:13:10.463Z,1.77
2017-12-29T12:15:38.669Z,2.10
2017-12-29T12:18:06.104Z,2.27
2017-12-29T12:20:33.542Z,1.93
2017-12-29T12:23:00.980Z,2.00
2017-12-29T12:25:28.419Z,1.53
2017-12-29T12:27:55.856Z,2.23
2017-12-29T12:30:24.061Z,2.23
2017-12-29T12:32:52.263Z,2.10
2017-12-29T12:35:20.460Z,1.97
2017-12-29T12:37:48.655Z,2.10
2017-12-29T12:40:16.861Z,1.60
2017-12-29T12:42:45.051Z,1.87
2017-12-29T12:45:13.271Z,2.20
2017-12-29T12:47:40.699Z,2.20
2017-12-29T12:50:08.151Z,2.10
2017-12-29T12:52:35.596Z,2.30
2017-12-29T12:55:03.843Z,2.27
2017-12-29T12:57:31.248Z,1.70
2017-12-29T12:59:58.685Z,2.03
2017-12-29T13:02:26.161Z,2.00
2017-12-29T13:04:53.574Z,2.10
2017-12-29T13:07:21.028Z,1.57
2017-12-29T13:09:48.455Z,2.13
2017-12-29T13:12:15.904Z,2.33
2017-12-29T13:14:43.335Z,2.87
2017-12-29T13:17:12.044Z,2.90
2017-12-29T13:19:40.260Z,3.03
2017-12-29T13:22:07.703Z,3.10
2017-12-29T13:24:35.139Z,2.40
2017-12-29T13:27:02.584Z,2.40
2017-12-29T13:29:30.790Z,2.10
2017-12-29T13:31:59.001Z,1.83
2017-12-29T13:34:26.440Z,2.00
2017-12-29T13:36:53.884Z,1.80
2017-12-29T13:39:21.316Z,1.40
2017-12-29T13:41:48.761Z,1.50
2017-12-29T13:44:16.229Z,1.83
2017-12-29T13:46:43.714Z,2.03
2017-12-29T13:49:11.490Z,2.77
2017-12-29T13:51:38.912Z,1.70
2017-12-29T13:54:06.364Z,2.30
2017-12-29T13:56:33.805Z,2.10
2017-12-29T13:59:02.021Z,1.80
2017-12-29T14:01:29.451Z,1.67
2017-12-29T14:03:56.891Z,1.77
2017-12-29T14:06:24.373Z,1.97
2017-12-29T14:08:51.813Z,1.80
2017-12-29T14:11:20.012Z,1.53
2017-12-29T14:13:48.246Z,2.00
2017-12-29T14:16:15.679Z,1.70
2017-12-29T14:18:43.527Z,1.53
2017-12-29T14:21:10.961Z,1.50
2017-12-29T14:23:39.169Z,1.90
2017-12-29T14:26:07.371Z,2.80
2017-12-29T14:28:35.630Z,2.22
2017-12-29T14:31:03.019Z,2.40
2017-12-29T14:33:30.510Z,1.98
2017-12-29T14:35:57.947Z,2.00
2017-12-29T14:38:25.433Z,1.77
2017-12-29T14:40:52.860Z,1.70
2017-12-29T14:43:21.088Z,1.85
2017-12-29T14:45:48.576Z,2.62
2017-12-29T14:48:16.003Z,2.45
2017-12-29T14:50:43.445Z,2.10
2017-12-29T14:53:10.884Z,2.20
2017-12-29T14:55:39.115Z,2.40
2017-12-29T14:58:06.544Z,2.40
2017-12-29T15:00:34.032Z,2.70
2017-12-29T15:03:01.500Z,3.00
2017-12-29T15:05:28.940Z,2.80
2017-12-29T15:07:56.426Z,3.50
2017-12-29T15:10:23.909Z,3.62
2017-12-29T15:12:51.362Z,4.00
2017-12-29T15:15:18.793Z,3.92
2017-12-29T15:17:46.229Z,4.50
2017-12-29T15:20:14.483Z,5.40
2017-12-29T15:22:42.143Z,7.40
2017-12-29T15:25:09.586Z,4.57
2017-12-29T15:27:37.844Z,4.97
2017-12-29T15:30:05.328Z,3.87
2017-12-29T15:32:32.756Z,5.20
2017-12-29T15:35:00.228Z,5.97
2017-12-29T15:37:28.474Z,6.83
2017-12-29T15:39:55.914Z,6.00
2017-12-29T15:42:23.395Z,5.20
2017-12-29T15:44:50.888Z,4.30
2017-12-29T15:47:18.322Z,3.00
2017-12-29T15:49:45.806Z,2.20
2017-12-29T15:52:14.115Z,2.30
2017-12-29T15:54:41.508Z,2.60
2017-12-29T15:57:09.754Z,2.60
2017-12-29T15:59:37.232Z,2.90
2017-12-29T16:02:04.708Z,2.95
2017-12-29T16:04:32.195Z,2.97
2017-12-29T16:06:59.665Z,3.25
2017-12-29T16:09:27.083Z,4.60
2017-12-29T16:11:54.535Z,3.12
2017-12-29T16:14:22.018Z,3.30
2017-12-29T16:16:49.492Z,2.70
2017-12-29T16:19:16.953Z,2.70
2017-12-29T16:21:45.199Z,2.50
2017-12-29T16:24:13.472Z,2.50
2017-12-29T16:26:40.923Z,2.70
2017-12-29T16:29:09.140Z,3.10
2017-12-29T16:31:36.614Z,3.80
2017-12-29T16:34:04.850Z,3.50
2017-12-29T16:36:32.321Z,3.30
2017-12-29T16:38:59.749Z,3.37
2017-12-29T16:41:27.994Z,2.62
2017-12-29T16:43:55.422Z,2.12
2017-12-29T16:46:22.912Z,3.20
2017-12-29T16:48:50.368Z,3.03
2017-12-29T16:51:17.837Z,2.80
2017-12-29T16:53:45.321Z,3.20
2017-12-29T16:56:12.817Z,3.12
2017-12-29T16:58:40.285Z,2.85
2017-12-29T17:01:07.706Z,3.25
2017-12-29T17:03:35.951Z,3.50
2017-12-29T17:06:03.431Z,4.55
2017-12-29T17:08:30.864Z,3.70
2017-12-29T17:10:59.070Z,3.60
2017-12-29T17:13:27.315Z,4.32
2017-12-29T17:15:54.795Z,4.30
2017-12-29T17:18:22.266Z,3.55
2017-12-29T17:20:49.700Z,3.90
2017-12-29T17:23:17.961Z,3.35
2017-12-29T17:25:45.393Z,3.30
2017-12-29T17:28:13.716Z,3.70
2017-12-29T17:30:41.153Z,3.60
2017-12-29T17:33:09.405Z,3.70
2017-12-29T17:35:36.887Z,3.83
2017-12-29T17:38:05.173Z,2.95
2017-12-29T17:40:32.654Z,4.67
2017-12-29T17:43:00.090Z,8.50
2017-12-29T17:45:27.566Z,3.90
2017-12-29T17:47:55.017Z,3.40
2017-12-29T17:50:22.452Z,2.50
2017-12-29T17:52:50.696Z,2.10
2017-12-29T17:55:18.168Z,3.07
2017-12-29T17:57:45.643Z,3.47
2017-12-29T18:00:13.114Z,2.30
2017-12-29T18:02:41.347Z,1.93
2017-12-29T18:05:08.818Z,2.37
2017-12-29T18:07:36.290Z,3.42
2017-12-29T18:10:03.762Z,2.87
2017-12-29T18:12:31.191Z,2.60
2017-12-29T18:14:58.674Z,2.70
2017-12-29T18:17:26.112Z,1.90
2017-12-29T18:19:53.606Z,2.20
2017-12-29T18:22:21.083Z,2.50
2017-12-29T18:24:48.533Z,3.40
2017-12-29T18:27:16.021Z,3.37
2017-12-29T18:29:43.505Z,2.78
2017-12-29T18:32:10.935Z,3.15
2017-12-29T18:34:38.381Z,3.40
2017-12-29T18:37:05.873Z,2.87
2017-12-29T18:39:33.303Z,3.20
2017-12-29T18:42:01.565Z,3.75
2017-12-29T18:44:29.053Z,3.65
2017-12-29T18:46:57.238Z,3.20
2017-12-29T18:49:24.714Z,3.40
2017-12-29T18:51:52.201Z,3.70
2017-12-29T18:54:19.635Z,4.40
2017-12-29T18:56:47.953Z,4.00
2017-12-29T18:59:15.448Z,4.22
2017-12-29T19:01:42.947Z,3.92
2017-12-29T19:04:10.468Z,4.20
2017-12-29T19:06:37.873Z,4.45
2017-12-29T19:09:05.350Z,5.80
2017-12-29T19:11:32.849Z,5.12
2017-12-29T19:14:00.319Z,5.45
2017-12-29T19:16:28.574Z,4.60
2017-12-29T19:18:56.066Z,5.78
2017-12-29T19:21:23.575Z,5.60
2017-12-29T19:23:51.825Z,5.57
2017-12-29T19:26:19.323Z,4.40
2017-12-29T19:28:46.754Z,5.37
2017-12-29T19:31:14.265Z,5.50
2017-12-29T19:33:41.757Z,6.80
2017-12-29T19:36:09.214Z,7.43
2017-12-29T19:38:36.699Z,2.42
2017-12-29T19:41:04.196Z,2.70
2017-12-29T19:43:31.681Z,2.90
2017-12-29T19:45:59.168Z,3.20
2017-12-29T19:48:26.672Z,2.90
2017-12-29T19:50:55.621Z,2.60
2017-12-29T19:53:24.110Z,2.00
2017-12-29T19:55:52.347Z,2.05
2017-12-29T19:58:19.839Z,2.12
2017-12-29T20:00:47.343Z,2.33
2017-12-29T20:03:14.824Z,2.10
2017-12-29T20:05:42.314Z,3.30
2017-12-29T20:08:09.797Z,3.40
2017-12-29T20:10:37.295Z,3.75
2017-12-29T20:13:05.565Z,2.90
2017-12-29T20:15:33.039Z,2.70
2017-12-29T20:18:00.537Z,3.12
2017-12-29T20:20:28.008Z,3.00
2017-12-29T20:22:55.499Z,2.85
2017-12-29T20:25:23.002Z,4.25
2017-12-29T20:27:51.257Z,3.10
2017-12-29T20:30:18.741Z,2.95
2017-12-29T20:32:46.225Z,3.20
2017-12-29T20:35:13.721Z,3.42
2017-12-29T20:37:41.199Z,3.50
2017-12-29T20:40:08.686Z,3.50
2017-12-29T20:42:36.184Z,3.40
2017-12-29T20:45:04.435Z,4.70
2017-12-29T20:47:31.907Z,4.20
2017-12-29T20:49:59.397Z,6.80
2017-12-29T20:52:26.877Z,5.30
2017-12-29T20:54:54.892Z,4.40
2017-12-29T20:57:22.363Z,3.60
2017-12-29T20:59:49.861Z,3.75
2017-12-29T21:02:17.387Z,3.97
2017-12-29T21:04:44.890Z,4.12
2017-12-29T21:07:12.367Z,3.70
2017-12-29T21:09:39.846Z,3.40
2017-12-29T21:12:07.314Z,2.90
2017-12-29T21:14:34.790Z,2.10
2017-12-29T21:17:03.026Z,2.30
2017-12-29T21:19:30.511Z,2.27
2017-12-29T21:21:57.998Z,2.47
2017-12-29T21:24:25.481Z,1.90
2017-12-29T21:26:53.177Z,2.50
2017-12-29T21:29:20.669Z,2.90
2017-12-29T21:31:48.149Z,2.80
2017-12-29T21:34:15.624Z,3.07
2017-12-29T21:36:43.099Z,2.40
2017-12-29T21:39:10.579Z,2.10
2017-12-29T21:41:38.049Z,2.60
2017-12-29T21:44:05.523Z,2.10
2017-12-29T21:46:33.015Z,2.40
2017-12-29T21:49:00.498Z,2.50
2017-12-29T21:51:27.981Z,2.57
2017-12-29T21:53:55.456Z,2.70
2017-12-29T21:56:22.939Z,2.20
2017-12-29T21:58:50.418Z,2.83
2017-12-29T22:01:17.902Z,3.03
2017-12-29T22:03:45.376Z,2.80
2017-12-29T22:06:13.677Z,2.80
2017-12-29T22:08:41.150Z,3.00
2017-12-29T22:11:08.635Z,2.93
2017-12-29T22:13:36.111Z,2.57
2017-12-29T22:16:03.586Z,2.33
2017-12-29T22:18:31.063Z,2.30
2017-12-29T22:20:58.556Z,2.63
2017-12-29T22:23:26.036Z,2.80
2017-12-29T22:25:53.519Z,3.60
2017-12-29T22:28:20.995Z,2.77
2017-12-29T22:30:48.470Z,2.90
2017-12-29T22:33:15.943Z,3.10
2017-12-29T22:35:43.427Z,4.67
2017-12-29T22:38:10.895Z,4.13
2017-12-29T22:40:39.152Z,3.93
2017-12-29T22:43:06.624Z,6.60
2017-12-29T22:45:34.179Z,5.40
2017-12-29T22:48:01.647Z,4.57
2017-12-29T22:50:29.887Z,5.30
2017-12-29T22:52:57.367Z,3.30
2017-12-29T22:55:25.722Z,3.57
2017-12-29T22:57:54.459Z,3.30
2017-12-29T23:00:21.939Z,3.47
2017-12-29T23:02:49.418Z,3.73
2017-12-29T23:05:16.890Z,3.40
2017-12-29T23:07:44.358Z,2.87
2017-12-29T23:10:12.595Z,3.63
2017-12-29T23:12:40.066Z,3.30
2017-12-29T23:17:34.566Z,2.83
2017-12-29T23:20:02.049Z,3.92
2017-12-29T23:22:29.528Z,3.65
2017-12-29T23:24:57.009Z,7.47
2017-12-29T23:27:25.033Z,5.33
2017-12-29T23:29:53.266Z,3.63
2017-12-29T23:32:20.739Z,4.73
2017-12-29T23:34:48.201Z,3.40
2017-12-29T23:37:15.679Z,3.80
2017-12-29T23:39:43.164Z,4.40
2017-12-29T23:42:10.644Z,4.10
2017-12-29T23:44:38.117Z,5.30
2017-12-29T23:47:06.342Z,4.30
2017-12-29T23:49:34.100Z,4.40
2017-12-29T23:52:02.339Z,4.23
2017-12-29T23:54:29.812Z,4.00
2017-12-29T23:56:57.274Z,3.77
2017-12-29T23:59:24.758Z,3.60
